createdAt,value
2018-04-26T00:20:55.161Z,0
2018-04-26T00:21:55.353Z,0
2018-04-26T00:22:55.713Z,0
2018-04-26T00:23:55.490Z,0
2018-04-26T00:24:56.143Z,0
2018-04-26T00:25:55.661Z,0
2018-04-26T00:26:56.196Z,0
2018-04-26T00:27:55.981Z,0
2018-04-26T00:28:56.368Z,0
2018-04-26T00:29:56.753Z,0
2018-04-26T00:30:56.884Z,0
2018-04-26T00:31:57.269Z,0
2018-04-26T00:32:57.664Z,0
2018-04-26T00:33:58.023Z,0
2018-04-26T00:34:58.141Z,0
2018-04-26T00:35:57.830Z,0
2018-04-26T00:36:58.214Z,0
2018-04-26T00:37:58.113Z,0
2018-04-26T00:38:58.510Z,0
2018-04-26T00:39:59.245Z,0
2018-04-26T00:40:59.333Z,0
2018-04-26T00:41:59.381Z,0
2018-04-26T00:42:59.466Z,0
2018-04-26T00:43:59.848Z,0
2018-04-26T00:44:59.981Z,0
2018-04-26T00:46:00.389Z,0
2018-04-26T00:47:00.819Z,0
2018-04-26T00:48:00.763Z,0
2018-04-26T00:49:00.093Z,0
2018-04-26T00:49:59.864Z,0
2018-04-26T00:51:00.688Z,0
2018-04-26T00:52:00.555Z,0
2018-04-26T00:53:00.867Z,0
2018-04-26T00:54:01.271Z,0
2018-04-26T00:55:01.424Z,0
2018-04-26T00:56:01.877Z,0
2018-04-26T00:57:02.297Z,0
2018-04-26T00:58:02.680Z,0
2018-04-26T00:59:02.697Z,0
2018-04-26T01:00:03.089Z,0
2018-04-26T01:01:02.885Z,0
2018-04-26T01:02:02.970Z,0
2018-04-26T01:03:02.687Z,0
2018-04-26T01:04:03.169Z,0
2018-04-26T01:05:03.205Z,0
2018-04-26T01:06:03.407Z,0
2018-04-26T01:07:03.170Z,0
2018-04-26T01:08:03.737Z,0
2018-04-26T01:09:03.487Z,0
2018-04-26T01:10:03.516Z,0
2018-04-26T01:11:03.847Z,0
2018-04-26T01:12:03.837Z,0
2018-04-26T01:13:03.597Z,0
2018-04-26T01:14:03.844Z,0
2018-04-26T01:15:03.896Z,0
2018-04-26T01:16:04.345Z,0
2018-04-26T01:17:04.318Z,0
2018-04-26T01:18:04.118Z,0
2018-04-26T01:19:04.350Z,0
2018-04-26T01:20:04.216Z,0
2018-04-26T01:21:04.978Z,0
2018-04-26T01:22:04.986Z,0
2018-04-26T01:23:04.767Z,0
2018-04-26T01:24:05.044Z,0
2018-04-26T01:25:04.613Z,0
2018-04-26T01:26:04.876Z,0
2018-04-26T01:27:05.318Z,0
2018-04-26T01:28:04.835Z,0
2018-04-26T01:29:05.110Z,0
2018-04-26T01:30:06.130Z,0
2018-04-26T01:31:05.882Z,0
2018-04-26T01:32:05.437Z,0
2018-04-26T01:33:05.932Z,0
2018-04-26T01:34:05.698Z,0
2018-04-26T01:35:06.442Z,0
2018-04-26T01:36:06.913Z,0
2018-04-26T01:37:06.954Z,0
2018-04-26T01:38:06.880Z,0
2018-04-26T01:39:06.979Z,0
2018-04-26T01:40:06.747Z,0
2018-04-26T01:41:06.804Z,0
2018-04-26T01:42:06.550Z,0
2018-04-26T01:43:07.318Z,0
2018-04-26T01:44:07.093Z,0
2018-04-26T01:45:07.648Z,0
2018-04-26T01:46:06.798Z,0
2018-04-26T01:47:07.893Z,0
2018-04-26T01:48:07.911Z,0
2018-04-26T01:49:07.872Z,0
2018-04-26T01:50:08.611Z,0
2018-04-26T01:51:08.551Z,0
2018-04-26T01:52:08.858Z,0
2018-04-26T01:53:08.106Z,0
2018-04-26T01:54:08.608Z,0
2018-04-26T01:55:09.415Z,0
2018-04-26T01:56:08.920Z,0
2018-04-26T01:57:09.139Z,0
2018-04-26T01:58:09.081Z,0
2018-04-26T01:59:09.643Z,0
2018-04-26T02:00:24.415Z,0
2018-04-26T02:01:10.061Z,0
2018-04-26T02:02:10.175Z,0
2018-04-26T02:03:10.925Z,0
2018-04-26T02:04:09.818Z,0
2018-04-26T02:05:10.705Z,0
2018-04-26T02:06:10.693Z,0
2018-04-26T02:07:10.806Z,0
2018-04-26T02:08:11.269Z,0
2018-04-26T02:09:11.272Z,0
2018-04-26T02:10:10.894Z,0
2018-04-26T02:11:11.500Z,0
2018-04-26T02:12:11.656Z,0
2018-04-26T02:13:12.321Z,0
2018-04-26T02:14:12.268Z,0
2018-04-26T02:15:11.883Z,0
2018-04-26T02:16:12.416Z,0
2018-04-26T02:17:12.163Z,0
2018-04-26T02:18:12.165Z,0
2018-04-26T02:19:12.575Z,0
2018-04-26T02:20:12.590Z,0
2018-04-26T02:21:13.007Z,0
2018-04-26T02:22:12.312Z,0
2018-04-26T02:23:13.053Z,0
2018-04-26T02:24:12.538Z,0
2018-04-26T02:25:12.585Z,0
2018-04-26T02:26:13.047Z,0
2018-04-26T02:27:13.399Z,0
2018-04-26T02:28:12.799Z,0
2018-04-26T02:29:12.923Z,0
2018-04-26T02:30:13.091Z,0
2018-04-26T02:31:13.534Z,0
2018-04-26T02:32:14.200Z,0
2018-04-26T02:33:14.597Z,0
2018-04-26T02:34:14.355Z,0
2018-04-26T02:35:14.234Z,0
2018-04-26T02:36:14.785Z,0
2018-04-26T02:37:14.811Z,0
2018-04-26T02:38:14.942Z,0
2018-04-26T02:39:15.356Z,0
2018-04-26T02:40:15.236Z,0
2018-04-26T02:41:15.791Z,0
2018-04-26T02:42:15.546Z,0
2018-04-26T02:43:15.713Z,0
2018-04-26T02:44:15.965Z,0
2018-04-26T02:45:16.622Z,0
2018-04-26T02:46:16.639Z,0
2018-04-26T02:47:16.131Z,0
2018-04-26T02:48:16.562Z,0
2018-04-26T02:49:16.090Z,0
2018-04-26T02:50:16.824Z,0
2018-04-26T02:51:17.012Z,0
2018-04-26T02:52:16.270Z,0
2018-04-26T02:53:16.936Z,0
2018-04-26T02:54:17.063Z,0
2018-04-26T02:55:16.985Z,0
2018-04-26T02:56:16.772Z,0
2018-04-26T02:57:17.199Z,0
2018-04-26T02:58:17.369Z,0
2018-04-26T02:59:17.659Z,0
2018-04-26T03:00:21.148Z,0
2018-04-26T03:01:17.662Z,0
2018-04-26T03:02:17.440Z,0
2018-04-26T03:03:17.902Z,0
2018-04-26T03:04:18.284Z,0
2018-04-26T03:05:18.256Z,0
2018-04-26T03:06:18.186Z,0
2018-04-26T03:07:18.370Z,0
2018-04-26T03:08:19.162Z,0
2018-04-26T03:09:19.263Z,0
2018-04-26T03:10:19.126Z,0
2018-04-26T03:11:20.132Z,0
2018-04-26T03:12:19.741Z,0
2018-04-26T03:13:20.451Z,0
2018-04-26T03:14:20.168Z,0
2018-04-26T03:15:20.043Z,0
2018-04-26T03:16:20.356Z,0
2018-04-26T03:17:20.655Z,0
2018-04-26T03:18:21.420Z,0
2018-04-26T03:19:21.468Z,0
2018-04-26T03:20:20.893Z,0
2018-04-26T03:21:21.138Z,0
2018-04-26T03:22:21.168Z,0
2018-04-26T03:23:21.953Z,0
2018-04-26T03:24:22.538Z,0
2018-04-26T03:25:22.064Z,0
2018-04-26T03:26:22.226Z,0
2018-04-26T03:27:22.408Z,0
2018-04-26T03:28:23.146Z,0
2018-04-26T03:29:22.830Z,0
2018-04-26T03:30:23.483Z,0
2018-04-26T03:31:23.288Z,0
2018-04-26T03:32:23.682Z,0
2018-04-26T03:33:23.800Z,0
2018-04-26T03:34:23.857Z,0
2018-04-26T03:35:24.159Z,0
2018-04-26T03:36:24.320Z,0
2018-04-26T03:37:25.396Z,0
2018-04-26T03:38:24.545Z,0
2018-04-26T03:39:24.518Z,0
2018-04-26T03:40:24.994Z,0
2018-04-26T03:41:25.190Z,0
2018-04-26T03:42:25.132Z,0
2018-04-26T03:43:25.001Z,5
2018-04-26T03:44:25.559Z,5
2018-04-26T03:45:25.123Z,5
2018-04-26T03:46:25.380Z,5
2018-04-26T03:47:26.158Z,5
2018-04-26T03:48:26.040Z,5
2018-04-26T03:49:25.858Z,10
2018-04-26T03:50:26.533Z,10
2018-04-26T03:51:26.681Z,10
2018-04-26T03:52:26.680Z,10
2018-04-26T03:53:26.363Z,10
2018-04-26T03:54:27.038Z,15
2018-04-26T03:55:26.792Z,15
2018-04-26T03:56:27.169Z,15
2018-04-26T03:57:26.912Z,15
2018-04-26T03:58:26.717Z,15
2018-04-26T03:59:26.869Z,20
2018-04-26T05:00:03.343Z,20
2018-04-26T05:00:15.086Z,20
2018-04-26T05:01:15.064Z,20
2018-04-26T05:02:16.018Z,15
2018-04-26T05:03:15.620Z,15
2018-04-26T05:04:15.213Z,20
2018-04-26T05:05:14.942Z,20
2018-04-26T05:06:14.703Z,25
2018-04-26T05:07:14.684Z,25
2018-04-26T05:08:15.498Z,20
2018-04-26T05:09:15.208Z,20
2018-04-26T05:10:15.716Z,15
2018-04-26T05:11:15.453Z,15
2018-04-26T05:12:15.368Z,20
2018-04-26T05:13:15.407Z,20
2018-04-26T05:14:15.441Z,25
2018-04-26T05:15:16.177Z,25
2018-04-26T05:16:16.374Z,30
2018-04-26T05:17:17.127Z,35
2018-04-26T05:18:17.072Z,40
2018-04-26T05:19:17.339Z,40
2018-04-26T05:20:17.095Z,50
2018-04-26T05:21:17.974Z,60
2018-04-26T05:22:18.202Z,60
2018-04-26T05:23:17.722Z,60
2018-04-26T05:24:18.033Z,65
2018-04-26T05:25:18.034Z,70
2018-04-26T05:26:17.787Z,70
2018-04-26T05:27:18.188Z,70
2018-04-26T05:28:18.188Z,70
2018-04-26T05:29:18.404Z,70
2018-04-26T05:30:18.005Z,65
2018-04-26T05:31:20.833Z,60
2018-04-26T05:32:18.944Z,50
2018-04-26T05:33:19.246Z,45
2018-04-26T05:34:20.796Z,50
2018-04-26T05:35:20.733Z,50
2018-04-26T05:36:19.328Z,55
2018-04-26T05:37:19.371Z,55
2018-04-26T05:38:19.094Z,65
2018-04-26T05:39:19.368Z,70
2018-04-26T05:40:19.235Z,65
2018-04-26T05:41:19.720Z,60
2018-04-26T05:42:19.192Z,60
2018-04-26T05:43:19.763Z,60
2018-04-26T05:44:19.793Z,65
2018-04-26T05:45:19.802Z,65
2018-04-26T05:46:19.931Z,60
2018-04-26T05:47:20.233Z,50
2018-04-26T05:48:20.180Z,45
2018-04-26T05:49:19.721Z,40
2018-04-26T05:50:19.706Z,45
2018-04-26T05:51:19.740Z,55
2018-04-26T05:52:20.019Z,60
2018-04-26T05:53:20.145Z,60
2018-04-26T05:54:20.126Z,55
2018-04-26T05:55:20.081Z,45
2018-04-26T05:56:19.982Z,45
2018-04-26T05:57:21.061Z,50
2018-04-26T05:58:19.676Z,45
2018-04-26T05:59:20.154Z,45
2018-04-26T06:00:21.721Z,45
2018-04-26T06:01:22.121Z,50
2018-04-26T06:02:22.271Z,55
2018-04-26T06:03:22.421Z,55
2018-04-26T06:04:22.443Z,55
2018-04-26T06:05:22.550Z,55
2018-04-26T06:06:22.877Z,70
2018-04-26T06:07:23.277Z,70
2018-04-26T06:08:23.559Z,75
2018-04-26T06:09:23.937Z,75
2018-04-26T06:10:23.436Z,75
2018-04-26T06:11:24.024Z,75
2018-04-26T06:12:24.222Z,80
2018-04-26T06:13:24.232Z,95
2018-04-26T06:14:24.245Z,105
2018-04-26T06:15:24.036Z,110
2018-04-26T06:16:24.726Z,120
2018-04-26T06:17:24.449Z,125
2018-04-26T06:18:24.341Z,120
2018-04-26T06:19:25.102Z,130
2018-04-26T06:20:24.873Z,125
2018-04-26T06:21:26.205Z,120
2018-04-26T06:22:25.100Z,115
2018-04-26T06:23:25.215Z,100
2018-04-26T06:24:25.723Z,90
2018-04-26T06:25:25.664Z,85
2018-04-26T06:26:25.458Z,85
2018-04-26T06:27:25.612Z,85
2018-04-26T06:28:25.868Z,85
2018-04-26T06:29:26.571Z,90
2018-04-26T06:30:27.634Z,100
2018-04-26T06:31:28.490Z,100
2018-04-26T06:32:27.753Z,95
2018-04-26T06:33:28.139Z,95
2018-04-26T06:34:28.877Z,85
2018-04-26T06:35:28.799Z,80
2018-04-26T06:36:28.458Z,75
2018-04-26T06:37:27.909Z,70
2018-04-26T06:38:27.437Z,60
2018-04-26T06:39:28.872Z,55
2018-04-26T06:40:27.699Z,55
2018-04-26T06:41:27.415Z,60
2018-04-26T06:42:28.864Z,65
2018-04-26T06:43:27.807Z,65
2018-04-26T06:44:27.348Z,60
2018-04-26T06:45:27.265Z,50
2018-04-26T06:46:27.519Z,40
2018-04-26T06:47:27.667Z,35
2018-04-26T06:48:28.060Z,35
2018-04-26T06:49:28.023Z,35
2018-04-26T06:50:27.901Z,40
2018-04-26T06:51:28.525Z,55
2018-04-26T06:52:28.722Z,80
2018-04-26T06:53:28.260Z,75
2018-04-26T06:54:29.039Z,60
2018-04-26T06:55:28.405Z,50
2018-04-26T06:56:29.071Z,55
2018-04-26T06:57:29.117Z,70
2018-04-26T06:58:29.220Z,80
2018-04-26T06:59:29.264Z,105
2018-04-26T07:00:29.780Z,165
2018-04-26T07:01:29.285Z,230
2018-04-26T07:02:29.542Z,335
2018-04-26T07:03:29.953Z,420
2018-04-26T07:04:30.107Z,405
2018-04-26T07:05:30.409Z,350
2018-04-26T07:06:30.576Z,310
2018-04-26T07:07:30.639Z,270
2018-04-26T07:08:31.050Z,260
2018-04-26T07:09:31.255Z,260
2018-04-26T07:10:31.399Z,265
2018-04-26T07:11:31.756Z,320
2018-04-26T07:12:32.436Z,985
2018-04-26T07:13:32.830Z,1010
2018-04-26T07:14:33.489Z,925
2018-04-26T07:15:32.365Z,990
2018-04-26T07:16:32.643Z,385
2018-04-26T07:17:33.313Z,395
2018-04-26T07:18:33.194Z,1510
2018-04-26T07:19:33.361Z,1560
2018-04-26T07:20:34.041Z,1645
2018-04-26T07:21:34.095Z,1640
2018-04-26T07:22:33.580Z,1230
2018-04-26T07:23:34.127Z,1575
2018-04-26T07:24:34.164Z,570
2018-04-26T07:25:33.644Z,1455
2018-04-26T07:26:34.210Z,630
2018-04-26T07:27:34.651Z,1280
2018-04-26T07:28:34.993Z,360
2018-04-26T07:29:34.565Z,1570
2018-04-26T07:30:35.294Z,1695
2018-04-26T07:31:35.419Z,985
2018-04-26T07:32:35.144Z,740
2018-04-26T07:33:35.281Z,1140
2018-04-26T07:34:35.218Z,895
2018-04-26T07:35:35.274Z,910
2018-04-26T07:36:34.964Z,970
2018-04-26T07:37:35.759Z,1590
2018-04-26T07:38:35.520Z,1285
2018-04-26T07:39:35.222Z,2005
2018-04-26T07:40:35.813Z,1805
2018-04-26T07:41:35.837Z,1715
2018-04-26T07:42:35.801Z,615
2018-04-26T07:43:36.065Z,540
2018-04-26T07:44:35.938Z,555
2018-04-26T07:45:35.881Z,835
2018-04-26T07:46:36.668Z,660
2018-04-26T07:47:36.528Z,645
2018-04-26T07:48:36.561Z,620
2018-04-26T07:49:36.326Z,610
2018-04-26T07:50:36.326Z,640
2018-04-26T07:51:36.596Z,705
2018-04-26T07:52:37.284Z,630
2018-04-26T07:53:36.811Z,680
2018-04-26T07:54:37.542Z,950
2018-04-26T07:55:37.121Z,845
2018-04-26T07:56:37.791Z,1050
2018-04-26T07:57:38.792Z,1010
2018-04-26T07:58:38.069Z,1710
2018-04-26T07:59:37.674Z,1175
2018-04-26T08:00:38.598Z,880
2018-04-26T08:01:38.464Z,580
2018-04-26T08:02:38.222Z,790
2018-04-26T08:03:38.407Z,2015
2018-04-26T08:04:38.635Z,795
2018-04-26T08:05:38.358Z,1655
2018-04-26T08:06:38.075Z,550
2018-04-26T08:07:38.579Z,435
2018-04-26T08:08:38.608Z,350
2018-04-26T08:09:38.664Z,250
2018-04-26T08:10:38.952Z,160
2018-04-26T08:11:38.627Z,160
2018-04-26T08:12:40.794Z,185
2018-04-26T08:13:38.503Z,140
2018-04-26T08:14:39.613Z,130
2018-04-26T08:15:38.734Z,125
2018-04-26T08:16:38.621Z,185
2018-04-26T08:17:38.290Z,355
2018-04-26T08:18:38.618Z,545
2018-04-26T08:19:39.612Z,660
2018-04-26T08:20:38.494Z,815
2018-04-26T08:21:39.315Z,1125
2018-04-26T08:22:39.544Z,955
2018-04-26T08:23:39.303Z,2535
2018-04-26T08:24:39.700Z,1960
2018-04-26T08:25:40.146Z,1950
2018-04-26T08:26:41.052Z,1410
2018-04-26T08:27:40.653Z,950
2018-04-26T08:28:41.534Z,740
2018-04-26T08:29:40.956Z,465
2018-04-26T08:30:41.321Z,315
2018-04-26T08:31:40.998Z,205
2018-04-26T08:32:40.793Z,105
2018-04-26T08:33:41.333Z,75
2018-04-26T08:34:41.480Z,80
2018-04-26T08:35:41.075Z,95
2018-04-26T08:36:41.948Z,70
2018-04-26T08:37:42.233Z,65
2018-04-26T08:38:43.373Z,100
2018-04-26T08:39:41.265Z,75
2018-04-26T08:40:42.479Z,95
2018-04-26T08:41:41.693Z,140
2018-04-26T08:42:42.286Z,190
2018-04-26T08:43:42.717Z,285
2018-04-26T08:44:42.378Z,315
2018-04-26T08:45:42.567Z,385
2018-04-26T08:46:41.769Z,370
2018-04-26T08:47:42.276Z,375
2018-04-26T08:48:42.190Z,345
2018-04-26T08:49:43.095Z,235
2018-04-26T08:50:43.028Z,150
2018-04-26T08:51:43.295Z,105
2018-04-26T08:52:43.150Z,105
2018-04-26T08:53:43.831Z,120
2018-04-26T08:54:43.643Z,200
2018-04-26T08:55:43.105Z,200
2018-04-26T08:56:43.609Z,140
2018-04-26T08:57:43.740Z,145
2018-04-26T08:58:44.446Z,205
2018-04-26T08:59:43.068Z,210
2018-04-26T09:00:48.042Z,170
2018-04-26T09:01:47.872Z,135
2018-04-26T09:02:43.058Z,165
2018-04-26T09:03:43.850Z,180
2018-04-26T09:04:43.936Z,160
2018-04-26T09:05:44.016Z,225
2018-04-26T09:06:43.851Z,245
2018-04-26T09:07:43.954Z,225
2018-04-26T09:08:44.014Z,220
2018-04-26T09:09:43.340Z,205
2018-04-26T09:10:43.688Z,185
2018-04-26T09:11:43.370Z,175
2018-04-26T09:12:44.388Z,170
2018-04-26T09:13:44.060Z,170
2018-04-26T09:14:44.233Z,190
2018-04-26T09:15:46.717Z,200
2018-04-26T09:16:46.841Z,195
2018-04-26T09:17:46.214Z,220
2018-04-26T09:18:45.860Z,220
2018-04-26T09:19:44.719Z,230
2018-04-26T09:20:45.525Z,260
2018-04-26T09:21:46.049Z,330
2018-04-26T09:22:45.624Z,355
2018-04-26T09:23:45.845Z,335
2018-04-26T09:24:45.727Z,420
2018-04-26T09:25:45.391Z,415
2018-04-26T09:26:44.996Z,420
2018-04-26T09:27:45.138Z,1000
2018-04-26T09:28:45.166Z,790
2018-04-26T09:29:45.946Z,1650
2018-04-26T09:30:45.698Z,1415
2018-04-26T09:31:45.840Z,2005
2018-04-26T09:32:45.805Z,675
2018-04-26T09:33:46.782Z,365
2018-04-26T09:34:46.786Z,380
2018-04-26T09:35:46.112Z,235
2018-04-26T09:36:46.346Z,220
2018-04-26T09:37:46.462Z,210
2018-04-26T09:38:46.554Z,215
2018-04-26T09:39:46.226Z,295
2018-04-26T09:40:46.640Z,240
2018-04-26T09:41:46.197Z,215
2018-04-26T09:42:46.482Z,195
2018-04-26T09:43:46.627Z,185
2018-04-26T09:44:46.838Z,220
2018-04-26T09:45:47.412Z,1880
2018-04-26T09:46:48.360Z,1210
2018-04-26T09:47:47.670Z,1005
2018-04-26T09:48:47.697Z,750
2018-04-26T09:49:48.579Z,730
2018-04-26T09:50:48.536Z,640
2018-04-26T09:51:47.939Z,690
2018-04-26T09:52:47.091Z,925
2018-04-26T09:53:47.021Z,805
2018-04-26T09:54:48.838Z,830
2018-04-26T09:55:48.122Z,690
2018-04-26T09:56:48.069Z,710
2018-04-26T09:57:48.671Z,670
2018-04-26T09:58:49.097Z,665
2018-04-26T09:59:48.625Z,725
2018-04-26T10:00:47.867Z,715
2018-04-26T10:01:49.058Z,705
2018-04-26T10:02:49.737Z,590
2018-04-26T10:03:48.304Z,540
2018-04-26T10:04:48.605Z,585
2018-04-26T10:05:49.002Z,510
2018-04-26T10:06:49.574Z,425
2018-04-26T10:07:48.657Z,540
2018-04-26T10:08:49.227Z,615
2018-04-26T10:09:49.298Z,645
2018-04-26T10:10:48.493Z,630
2018-04-26T10:11:49.447Z,565
2018-04-26T10:12:49.981Z,480
2018-04-26T10:13:50.555Z,465
2018-04-26T10:14:49.625Z,475
2018-04-26T10:15:50.085Z,435
2018-04-26T10:16:50.454Z,435
2018-04-26T10:17:49.814Z,410
2018-04-26T10:18:49.623Z,385
2018-04-26T10:19:49.633Z,350
2018-04-26T10:20:49.661Z,360
2018-04-26T10:21:49.989Z,350
2018-04-26T10:22:49.890Z,295
2018-04-26T10:23:50.195Z,265
2018-04-26T10:24:50.086Z,295
2018-04-26T10:25:50.684Z,280
2018-04-26T10:26:51.213Z,345
2018-04-26T10:27:50.817Z,305
2018-04-26T10:28:50.983Z,350
2018-04-26T10:29:51.135Z,610
2018-04-26T10:30:51.489Z,585
2018-04-26T10:31:51.939Z,380
2018-04-26T10:32:52.075Z,250
2018-04-26T10:33:52.273Z,210
2018-04-26T10:34:52.540Z,500
2018-04-26T10:35:52.435Z,560
2018-04-26T10:36:52.419Z,530
2018-04-26T10:37:52.863Z,505
2018-04-26T10:38:53.307Z,370
2018-04-26T10:39:55.031Z,245
2018-04-26T10:40:54.224Z,170
2018-04-26T10:41:54.085Z,155
2018-04-26T10:42:54.478Z,180
2018-04-26T10:43:54.885Z,140
2018-04-26T10:44:54.888Z,135
2018-04-26T10:45:54.406Z,175
2018-04-26T10:46:55.134Z,240
2018-04-26T10:47:54.661Z,225
2018-04-26T10:48:57.657Z,210
2018-04-26T10:49:55.500Z,260
2018-04-26T10:50:55.399Z,300
2018-04-26T10:51:56.917Z,230
2018-04-26T10:52:56.486Z,215
2018-04-26T10:53:56.978Z,185
2018-04-26T10:54:58.509Z,145
2018-04-26T10:55:57.085Z,155
2018-04-26T10:56:57.092Z,195
2018-04-26T10:57:56.590Z,320
2018-04-26T10:58:58.455Z,495
2018-04-26T10:59:58.636Z,465
2018-04-26T11:00:56.594Z,445
2018-04-26T11:01:56.743Z,470
2018-04-26T11:02:57.795Z,470
2018-04-26T11:03:57.084Z,545
2018-04-26T11:04:59.223Z,550
2018-04-26T11:05:57.365Z,365
2018-04-26T11:06:57.609Z,325
2018-04-26T11:07:57.819Z,380
2018-04-26T11:08:57.765Z,520
2018-04-26T11:09:57.303Z,540
2018-04-26T11:10:57.426Z,510
2018-04-26T11:11:57.821Z,470
2018-04-26T11:12:58.216Z,380
2018-04-26T11:13:57.582Z,380
2018-04-26T11:14:58.910Z,445
2018-04-26T11:15:58.397Z,495
2018-04-26T11:16:58.770Z,495
2018-04-26T11:17:59.430Z,435
2018-04-26T11:18:59.279Z,360
2018-04-26T11:19:59.564Z,420
2018-04-26T11:20:59.507Z,400
2018-04-26T11:21:59.631Z,430
2018-04-26T11:23:00.132Z,475
2018-04-26T11:24:00.043Z,510
2018-04-26T11:25:00.429Z,490
2018-04-26T11:26:00.440Z,510
2018-04-26T11:26:59.999Z,510
2018-04-26T11:28:00.304Z,475
2018-04-26T11:29:00.881Z,420
2018-04-26T11:30:00.764Z,400
2018-04-26T11:31:00.789Z,385
2018-04-26T11:32:01.099Z,450
2018-04-26T11:33:00.382Z,400
2018-04-26T11:34:00.975Z,385
2018-04-26T11:35:00.709Z,360
2018-04-26T11:36:01.392Z,315
2018-04-26T11:37:01.589Z,285
2018-04-26T11:38:01.515Z,390
2018-04-26T11:39:01.972Z,405
2018-04-26T11:40:02.200Z,360
2018-04-26T11:41:02.134Z,350
2018-04-26T11:42:02.798Z,350
2018-04-26T11:43:02.915Z,295
2018-04-26T11:44:03.196Z,235
2018-04-26T11:45:02.717Z,305
2018-04-26T11:46:01.919Z,340
2018-04-26T11:47:02.916Z,310
2018-04-26T11:48:03.013Z,345
2018-04-26T11:49:02.948Z,330
2018-04-26T11:50:03.644Z,385
2018-04-26T11:51:05.085Z,435
2018-04-26T11:52:04.251Z,330
2018-04-26T11:53:03.730Z,265
2018-04-26T11:54:03.056Z,295
2018-04-26T11:55:03.375Z,330
2018-04-26T11:56:03.793Z,380
2018-04-26T11:57:04.166Z,325
2018-04-26T11:58:04.606Z,295
2018-04-26T11:59:05.393Z,365
2018-04-26T12:00:09.438Z,365
2018-04-26T12:01:04.549Z,310
2018-04-26T12:02:04.775Z,265
2018-04-26T12:03:05.112Z,295
2018-04-26T12:04:05.750Z,325
2018-04-26T12:05:05.248Z,310
2018-04-26T12:06:05.423Z,250
2018-04-26T12:07:07.501Z,245
2018-04-26T12:08:05.612Z,350
2018-04-26T12:09:06.180Z,375
2018-04-26T12:10:05.852Z,360
2018-04-26T12:11:06.537Z,320
2018-04-26T12:12:06.378Z,290
2018-04-26T12:13:07.099Z,210
2018-04-26T12:14:07.182Z,220
2018-04-26T12:15:07.447Z,265
2018-04-26T12:16:07.348Z,390
2018-04-26T12:17:07.723Z,410
2018-04-26T12:18:07.880Z,395
2018-04-26T12:19:08.356Z,370
2018-04-26T12:20:08.598Z,440
2018-04-26T12:21:08.130Z,425
2018-04-26T12:22:09.001Z,290
2018-04-26T12:23:08.349Z,285
2018-04-26T12:24:09.518Z,235
2018-04-26T12:25:08.368Z,255
2018-04-26T12:26:08.991Z,285
2018-04-26T12:27:09.123Z,280
2018-04-26T12:28:08.969Z,270
2018-04-26T12:29:09.153Z,275
2018-04-26T12:30:09.177Z,280
2018-04-26T12:31:09.127Z,260
2018-04-26T12:32:09.016Z,270
2018-04-26T12:33:09.820Z,290
2018-04-26T12:34:09.880Z,290
2018-04-26T12:35:09.875Z,330
2018-04-26T12:36:09.443Z,360
2018-04-26T12:37:09.673Z,345
2018-04-26T12:38:10.433Z,290
2018-04-26T12:39:10.480Z,255
2018-04-26T12:40:10.824Z,225
2018-04-26T12:41:12.532Z,195
2018-04-26T12:42:11.987Z,180
2018-04-26T12:43:11.956Z,175
2018-04-26T12:44:12.014Z,205
2018-04-26T12:45:11.795Z,225
2018-04-26T12:46:11.342Z,230
2018-04-26T12:48:10.480Z,275
2018-04-26T12:49:11.415Z,275
2018-04-26T12:50:10.829Z,270
2018-04-26T12:51:11.040Z,280
2018-04-26T12:52:10.805Z,285
2018-04-26T12:53:10.820Z,265
2018-04-26T12:54:10.695Z,240
2018-04-26T12:55:11.027Z,270
2018-04-26T12:56:11.574Z,265
2018-04-26T12:57:11.615Z,290
2018-04-26T12:58:12.532Z,290
2018-04-26T12:59:11.298Z,285
2018-04-26T13:00:25.167Z,280
2018-04-26T13:01:24.556Z,265
2018-04-26T13:02:24.677Z,230
2018-04-26T13:03:25.157Z,205
2018-04-26T13:04:25.111Z,170
2018-04-26T13:05:25.264Z,155
2018-04-26T13:06:25.721Z,155
2018-04-26T13:07:26.106Z,145
2018-04-26T13:08:25.954Z,215
2018-04-26T13:09:25.842Z,210
2018-04-26T13:10:26.155Z,215
2018-04-26T13:11:26.466Z,255
2018-04-26T13:12:26.870Z,275
2018-04-26T13:13:26.893Z,255
2018-04-26T13:14:26.633Z,295
2018-04-26T13:15:26.489Z,245
2018-04-26T13:16:27.089Z,265
2018-04-26T13:17:27.048Z,265
2018-04-26T13:18:27.094Z,285
2018-04-26T13:19:26.884Z,225
2018-04-26T13:20:26.999Z,165
2018-04-26T13:21:26.713Z,150
2018-04-26T13:22:26.957Z,195
2018-04-26T13:23:27.683Z,220
2018-04-26T13:24:27.470Z,135
2018-04-26T13:25:27.896Z,80
2018-04-26T13:26:27.547Z,80
2018-04-26T13:27:28.116Z,105
2018-04-26T13:28:28.270Z,140
2018-04-26T13:29:28.682Z,165
2018-04-26T13:30:28.808Z,210
2018-04-26T13:31:28.941Z,250
2018-04-26T13:32:29.152Z,290
2018-04-26T13:33:29.347Z,300
2018-04-26T13:34:29.846Z,325
2018-04-26T13:35:29.948Z,350
2018-04-26T13:36:30.319Z,350
2018-04-26T13:37:29.640Z,325
2018-04-26T13:38:30.554Z,270
2018-04-26T13:39:29.980Z,200
2018-04-26T13:40:30.520Z,160
2018-04-26T13:41:30.103Z,140
2018-04-26T13:42:30.134Z,125
2018-04-26T13:43:30.546Z,110
2018-04-26T13:44:30.980Z,105
2018-04-26T13:45:30.851Z,115
2018-04-26T13:46:31.624Z,140
2018-04-26T13:47:31.803Z,135
2018-04-26T13:48:32.232Z,125
2018-04-26T13:49:32.108Z,125
2018-04-26T13:50:32.997Z,120
2018-04-26T13:51:32.737Z,120
2018-04-26T13:52:32.932Z,115
2018-04-26T13:53:33.168Z,115
2018-04-26T13:54:33.105Z,120
2018-04-26T13:55:33.669Z,110
2018-04-26T13:56:33.605Z,110
2018-04-26T13:57:33.882Z,110
2018-04-26T13:58:34.057Z,110
2018-04-26T13:59:34.240Z,110
2018-04-26T14:00:33.973Z,110
2018-04-26T14:01:34.457Z,105
2018-04-26T14:02:34.637Z,115
2018-04-26T14:03:34.889Z,110
2018-04-26T14:04:35.033Z,105
2018-04-26T14:05:35.673Z,105
2018-04-26T14:06:35.250Z,105
2018-04-26T14:07:35.551Z,110
2018-04-26T14:08:36.212Z,115
2018-04-26T14:09:35.838Z,120
2018-04-26T14:10:36.208Z,120
2018-04-26T14:11:36.542Z,125
2018-04-26T14:12:37.210Z,155
2018-04-26T14:13:37.221Z,145
2018-04-26T14:14:37.340Z,120
2018-04-26T14:15:37.026Z,115
2018-04-26T14:16:37.143Z,145
2018-04-26T14:17:38.226Z,170
2018-04-26T14:18:37.676Z,130
2018-04-26T14:19:38.264Z,135
2018-04-26T14:20:38.324Z,150
2018-04-26T14:21:38.765Z,210
2018-04-26T14:22:38.515Z,220
2018-04-26T14:23:39.166Z,180
2018-04-26T14:24:38.975Z,180
2018-04-26T14:25:38.694Z,165
2018-04-26T14:26:39.055Z,175
2018-04-26T14:27:39.414Z,180
2018-04-26T14:28:39.192Z,170
2018-04-26T14:29:40.224Z,220
2018-04-26T14:30:39.206Z,285
2018-04-26T14:31:40.336Z,275
2018-04-26T14:32:40.166Z,275
2018-04-26T14:33:40.067Z,215
2018-04-26T14:34:40.131Z,220
2018-04-26T14:35:39.877Z,215
2018-04-26T14:36:40.400Z,160
2018-04-26T14:37:40.709Z,145
2018-04-26T14:38:40.204Z,135
2018-04-26T14:39:39.885Z,110
2018-04-26T14:40:40.257Z,100
2018-04-26T14:41:40.678Z,90
2018-04-26T14:42:41.197Z,85
2018-04-26T14:43:40.870Z,120
2018-04-26T14:44:41.276Z,140
2018-04-26T14:45:41.652Z,150
2018-04-26T14:46:41.426Z,165
2018-04-26T14:47:41.561Z,170
2018-04-26T14:48:42.135Z,145
2018-04-26T14:49:42.114Z,120
2018-04-26T14:50:42.274Z,110
2018-04-26T14:51:41.703Z,80
2018-04-26T14:52:42.186Z,35
2018-04-26T14:53:43.032Z,15
2018-04-26T14:54:42.689Z,10
2018-04-26T14:55:43.134Z,10
2018-04-26T14:56:42.311Z,15
2018-04-26T14:57:42.883Z,15
2018-04-26T14:58:43.090Z,15
2018-04-26T14:59:43.649Z,15
2018-04-26T16:00:04.702Z,80
2018-04-26T17:00:19.502Z,70
2018-04-26T17:01:18.252Z,70
2018-04-26T17:02:18.282Z,70
2018-04-26T17:03:19.050Z,65
2018-04-26T17:04:19.012Z,65
2018-04-26T17:05:18.660Z,65
2018-04-26T17:06:17.752Z,60
2018-04-26T17:07:18.409Z,55
2018-04-26T17:08:18.241Z,55
2018-04-26T17:09:18.870Z,55
2018-04-26T17:10:18.923Z,50
2018-04-26T17:11:18.393Z,50
2018-04-26T17:12:18.469Z,50
2018-04-26T17:13:18.862Z,45
2018-04-26T17:14:19.261Z,45
2018-04-26T17:15:19.616Z,45
2018-04-26T17:16:19.959Z,45
2018-04-26T17:17:19.981Z,45
2018-04-26T17:18:19.749Z,45
2018-04-26T17:19:19.830Z,45
2018-04-26T17:20:20.181Z,45
2018-04-26T17:21:20.820Z,45
2018-04-26T17:22:20.365Z,40
2018-04-26T17:23:20.726Z,40
2018-04-26T17:24:21.102Z,40
2018-04-26T17:25:21.151Z,40